Jesus Teran International Airport
MMAS : rendu visible

Aérodrome :











RETROUVEZ-NOUS SUR...

 
LOGIN :

S'inscrire | Disclaimer

   EN    FR    IT 

 









Légende :    VFR   VFR Marginal   IFR   IFR Intensif   IFR Très Intensif
Visi : 
Plafond : 
>= 8 km
>= 3000ft
5 à 8 km
1000 à 3000 ft
1500m à 5 km
500 à 1000 ft
800 à 1500m
200 à 500 ft
< 800m
< 200 ft
Symboles :   Orages  Brouillard  Fortes neiges  Fortes précipitations  Vent > 20 kt






- Altitude de l'aérodrome : 6112 ft
- Code IATA : AGU


MMAS - Jesus Teran International

DERNIER METAR :
  • 040242Z 25007KT 9SM SKC 21/M01 A3011 RMK HZY PRESRR

METARs EXPIRÉS :
  • 040141Z 22009KT 9SM SKC 24/M01 A3007
  • 040041Z 21014KT 9SM SKC 27/M03 A3006 RMK CI DSNT ARND HZY
  • 032340Z 20013KT 9SM SKC 29/M04 A3005 RMK SLP024 HZY CI

TAF TAF MMAS
Valide du 03 à 18h jusqu'au 04 à 18h UTC


031646Z 0318/0418 23010KT P6SM SKC
TEMPO 0320/0324 23015KT
FM040300 20005KT P6SM SKC
FM041600 21010KT P6SM SKC



MET'MAP, la Météo Aéronautique d'un coup d'oeil ! - Copyright ORBIFLY Décembre 2007 - Disclaimer

ORBIFLY MET'MAP TEAM :

Programmation & Développement : Alexandra Zaïnal
Sur une idée originale de : Baudouin d'Aumeries
Assistance à la programmation : Marc-Olivier Méhu
Soutien technique & logistique : Manuel Goepfert

Contact : metmap@orbifly.com




SOURCES & CREDITS :

   NOAA       Earth
Advisory